Time;durP1;ratioP1;P1;durP2;ratioP2;P2;SDS_P1;SDS_P2;PMS_P1;PMS_P2;Temp;Humidity;BMP_temperature;BMP_pressure;BME280_temperature;BME280_humidity;BME280_pressure;Samples;Min_cycle;Max_cycle;Signal;HPM_P1;HPM_P2
2021/12/05 00:17:16;;;;;;;;;8.50;7.00;;;;;4.41;100.00;99840.78;4979907;28;9629;-68
2021/12/05 00:24:41;;;;;;;;;4.00;4.00;;;;;4.28;100.00;99843.81;4991423;28;8818;-68
2021/12/05 00:27:16;;;;;;;;;9.00;9.00;;;;;-141.35;100.00;57355.97;4989415;28;10281;-68
2021/12/05 00:29:52;;;;;;;;;7.75;7.00;;;;;-141.35;100.00;57355.97;4990998;28;9491;-68
2021/12/05 00:32:23;;;;;;;;;8.50;7.00;;;;;-141.35;100.00;57355.97;4990700;28;9438;-68
2021/12/05 00:38:07;;;;;;;;;14.00;10.75;;;;;-141.35;100.00;57355.97;4988933;28;9641;-68
2021/12/05 00:43:16;;;;;;;;;9.25;8.50;;;;;-141.35;100.00;57355.97;4991179;28;9550;-69
2021/12/05 00:51:35;;;;;;;;;11.00;9.75;;;;;-141.35;100.00;57355.97;4990792;28;9635;-67
2021/12/05 00:57:07;;;;;;;;;10.75;10.75;;;;;-141.35;100.00;57355.97;4968811;28;9745;-65
2021/12/05 01:04:38;;;;;;;;;15.25;12.00;;;;;-141.35;100.00;57355.97;4972034;28;8797;-66
2021/12/05 01:09:46;;;;;;;;;15.00;11.00;;;;;-141.35;100.00;57355.97;4971928;28;9779;-66
2021/12/05 01:12:20;;;;;;;;;10.50;10.50;;;;;-141.35;100.00;57355.97;4972054;28;9912;-66
2021/12/05 01:17:23;;;;;;;;;11.00;10.50;;;;;-141.35;100.00;57355.97;4971714;28;9844;-66
2021/12/05 01:19:49;;;;;;;;;8.00;8.00;;;;;-141.35;100.00;57355.97;4971407;28;9748;-66
2021/12/05 01:22:19;;;;;;;;;9.25;8.75;;;;;-141.35;100.00;57355.97;4970924;28;9725;-67
2021/12/05 01:27:45;;;;;;;;;15.75;12.25;;;;;-141.35;100.00;57355.97;4971525;28;10383;-67
2021/12/05 01:30:31;;;;;;;;;10.50;10.50;;;;;-141.35;100.00;57355.97;4970759;28;9727;-67
2021/12/05 01:38:13;;;;;;;;;17.50;12.00;;;;;-141.35;100.00;57355.97;4974980;28;8813;-67
2021/12/05 01:40:58;;;;;;;;;11.25;11.25;;;;;-141.35;100.00;57355.97;4975141;28;9578;-67
2021/12/05 01:44:16;;;;;;;;;15.00;13.75;;;;;-141.35;100.00;57355.97;4974423;28;9566;-68
2021/12/05 01:47:04;;;;;;;;;12.00;11.00;;;;;-141.35;100.00;57355.97;4974523;28;10600;-67
2021/12/05 01:58:14;;;;;;;;;9.00;7.00;;;;;-141.35;100.00;57355.97;4973779;28;9779;-67
2021/12/05 02:01:17;;;;;;;;;8.50;8.00;;;;;-141.35;100.00;57355.97;4974531;28;9659;-67
2021/12/05 02:09:25;;;;;;;;;10.00;9.50;;;;;-141.35;100.00;57355.97;4974218;28;9579;-67
2021/12/05 02:12:30;;;;;;;;;7.00;7.00;;;;;-141.35;100.00;57355.97;4973446;28;9560;-66
2021/12/05 02:15:12;;;;;;;;;11.25;8.50;;;;;-141.35;100.00;57355.97;4974120;28;9585;-66
2021/12/05 02:41:47;;;;;;;;;12.75;11.25;;;;;-141.35;100.00;57355.97;4973735;28;9503;-66
2021/12/05 02:46:48;;;;;;;;;11.00;8.00;;;;;-141.35;100.00;57355.97;4971989;28;9794;-67
2021/12/05 02:49:15;;;;;;;;;5.00;5.00;;;;;-141.35;100.00;57355.97;4973342;28;9774;-66
2021/12/05 02:51:51;;;;;;;;;8.00;7.00;;;;;-141.35;100.00;57355.97;4973717;28;9670;-66
2021/12/05 02:54:17;;;;;;;;;10.25;10.25;;;;;-141.35;100.00;57355.97;4973233;28;9841;-67
2021/12/05 02:56:48;;;;;;;;;12.75;12.75;;;;;-141.35;100.00;57355.97;4956866;28;9739;-67
2021/12/05 02:59:23;;;;;;;;;11.50;10.75;;;;;-141.35;100.00;57355.97;4954181;28;9740;-67
2021/12/05 03:01:57;;;;;;;;;14.50;13.00;;;;;-141.35;100.00;57355.97;4953220;28;9748;-66
2021/12/05 03:04:24;;;;;;;;;13.00;10.75;;;;;-141.35;100.00;57355.97;4954315;28;9567;-67
2021/12/05 03:06:52;;;;;;;;;15.50;11.75;;;;;-141.35;100.00;57355.97;4953258;28;9677;-66
2021/12/05 03:09:19;;;;;;;;;16.00;14.00;;;;;-141.35;100.00;57355.97;4954274;28;9740;-67
2021/12/05 03:11:46;;;;;;;;;10.00;10.00;;;;;-141.35;100.00;57355.97;4953526;28;10394;-67
2021/12/05 03:14:12;;;;;;;;;10.75;10.25;;;;;-141.35;100.00;57355.97;4964344;28;10677;-67
2021/12/05 03:16:39;;;;;;;;;9.00;9.00;;;;;-141.35;100.00;57355.97;4973413;28;9982;-67
2021/12/05 03:19:06;;;;;;;;;20.25;17.50;;;;;-141.35;100.00;57355.97;4973261;28;8868;-67
2021/12/05 03:21:33;;;;;;;;;15.50;13.00;;;;;-141.35;100.00;57355.97;4972489;28;9881;-67
2021/12/05 03:23:59;;;;;;;;;15.75;11.25;;;;;-141.35;100.00;57355.97;4972575;28;9763;-67
2021/12/05 03:26:28;;;;;;;;;17.25;15.25;;;;;-141.35;100.00;57355.97;4972970;28;9900;-66
2021/12/05 03:28:55;;;;;;;;;19.00;18.00;;;;;-141.35;100.00;57355.97;4971974;28;10025;-67
2021/12/05 03:31:22;;;;;;;;;13.25;13.25;;;;;-141.35;100.00;57355.97;4973126;28;9816;-67
2021/12/05 03:33:48;;;;;;;;;15.50;14.00;;;;;-141.35;100.00;57355.97;4972625;28;10014;-67
2021/12/05 03:36:13;;;;;;;;;15.25;14.00;;;;;-141.35;100.00;57355.97;4972181;28;9893;-67
2021/12/05 03:38:40;;;;;;;;;13.50;12.25;;;;;-141.35;100.00;57355.97;4972659;28;8915;-66
2021/12/05 03:41:06;;;;;;;;;11.75;10.25;;;;;-141.35;100.00;57355.97;4972910;28;8817;-66
2021/12/05 03:43:32;;;;;;;;;9.50;9.50;;;;;-141.35;100.00;57355.97;4972201;28;9818;-66
2021/12/05 03:45:59;;;;;;;;;11.25;9.75;;;;;-141.35;100.00;57355.97;4972451;28;8814;-66
2021/12/05 03:48:30;;;;;;;;;11.50;8.00;;;;;-141.35;100.00;57355.97;4972808;28;8804;-66
2021/12/05 03:50:56;;;;;;;;;3.50;3.50;;;;;-141.35;100.00;57355.97;4971716;28;9726;-66
2021/12/05 03:53:22;;;;;;;;;7.75;7.75;;;;;-141.35;100.00;57355.97;4972649;28;9675;-66
2021/12/05 03:55:51;;;;;;;;;7.75;7.00;;;;;-141.35;100.00;57355.97;4963599;28;10489;-66
2021/12/05 03:58:18;;;;;;;;;7.00;6.00;;;;;-141.35;100.00;57355.97;4952086;28;8804;-66
2021/12/05 04:00:48;;;;;;;;;7.00;7.00;;;;;-141.35;100.00;57355.97;4964227;28;9698;-66
2021/12/05 04:03:17;;;;;;;;;6.50;6.50;;;;;-141.35;100.00;57355.97;4971880;28;9740;-66
2021/12/05 04:05:43;;;;;;;;;10.00;9.00;;;;;-141.35;100.00;57355.97;4972256;28;9817;-66
2021/12/05 04:08:13;;;;;;;;;7.50;7.50;;;;;-141.35;100.00;57355.97;4972471;28;9829;-66
2021/12/05 04:10:42;;;;;;;;;7.25;7.25;;;;;-141.35;100.00;57355.97;4971752;28;8785;-66
2021/12/05 04:13:07;;;;;;;;;7.75;7.75;;;;;-141.35;100.00;57355.97;4972185;28;10581;-66
2021/12/05 04:15:33;;;;;;;;;11.00;11.00;;;;;-141.35;100.00;57355.97;4972527;28;9657;-66
2021/12/05 04:17:58;;;;;;;;;8.75;7.00;;;;;-141.35;100.00;57355.97;4971552;28;8900;-66
2021/12/05 04:20:24;;;;;;;;;17.00;11.00;;;;;-141.35;100.00;57355.97;4972004;28;8884;-66
2021/12/05 04:22:51;;;;;;;;;16.25;15.25;;;;;-141.35;100.00;57355.97;4970994;28;8838;-66
2021/12/05 04:25:17;;;;;;;;;17.75;15.25;;;;;-141.35;100.00;57355.97;4971560;28;10039;-66
2021/12/05 04:27:45;;;;;;;;;14.50;13.25;;;;;-141.35;100.00;57355.97;4971977;28;9870;-67
2021/12/05 04:30:14;;;;;;;;;13.00;11.00;;;;;-141.35;100.00;57355.97;4972205;28;9944;-67
2021/12/05 04:32:39;;;;;;;;;15.75;14.25;;;;;-141.35;100.00;57355.97;4970512;28;9918;-67
2021/12/05 04:35:05;;;;;;;;;17.50;17.50;;;;;-141.35;100.00;57355.97;4971856;28;10125;-67
2021/12/05 04:37:31;;;;;;;;;16.75;14.75;;;;;-141.35;100.00;57355.97;4971764;28;8803;-67
2021/12/05 04:39:57;;;;;;;;;12.00;11.75;;;;;-141.35;100.00;57355.97;4971279;28;10011;-66
2021/12/05 04:42:22;;;;;;;;;14.25;14.00;;;;;-141.35;100.00;57355.97;4971832;28;8896;-66
2021/12/05 04:44:47;;;;;;;;;14.00;14.00;;;;;-141.35;100.00;57355.97;4972069;28;8811;-66
2021/12/05 04:47:13;;;;;;;;;13.00;12.25;;;;;-141.35;100.00;57355.97;4970754;28;8821;-67
2021/12/05 04:49:40;;;;;;;;;17.75;17.75;;;;;-141.35;100.00;57355.97;4972147;28;8802;-67
2021/12/05 04:52:07;;;;;;;;;15.00;14.25;;;;;-141.35;100.00;57355.97;4971978;28;8847;-66
2021/12/05 04:54:33;;;;;;;;;16.00;14.25;;;;;-141.35;100.00;57355.97;4971421;28;10208;-67
2021/12/05 04:56:59;;;;;;;;;18.75;16.50;;;;;-141.35;100.00;57355.97;4953567;28;10745;-66
2021/12/05 04:59:26;;;;;;;;;17.00;14.00;;;;;-141.35;100.00;57355.97;4952198;28;8885;-66
2021/12/05 05:01:54;;;;;;;;;20.00;17.00;;;;;-141.35;100.00;57355.97;4952703;28;8862;-66
2021/12/05 05:04:26;;;;;;;;;14.00;11.75;;;;;-141.35;100.00;57355.97;4952432;28;9728;-66
2021/12/05 05:06:54;;;;;;;;;16.75;15.25;;;;;-141.35;100.00;57355.97;4951884;28;9541;-66
2021/12/05 05:09:20;;;;;;;;;15.00;14.00;;;;;-141.35;100.00;57355.97;4952396;28;9857;-66
2021/12/05 05:11:45;;;;;;;;;14.00;12.75;;;;;-141.35;100.00;57355.97;4955597;28;10782;-67
2021/12/05 05:14:13;;;;;;;;;13.00;11.50;;;;;-141.35;100.00;57355.97;4955604;28;8800;-66
2021/12/05 05:16:38;;;;;;;;;7.75;7.75;;;;;-141.35;100.00;57355.97;4956346;28;8792;-66
2021/12/05 05:19:04;;;;;;;;;14.00;14.00;;;;;-141.35;100.00;57355.97;4955741;28;9856;-67
2021/12/05 05:21:38;;;;;;;;;14.00;12.75;;;;;-141.35;100.00;57355.97;4955410;28;8898;-67
2021/12/05 05:29:49;;;;;;;;;20.25;14.75;;;;;-141.35;100.00;57355.97;4955083;28;9702;-67
2021/12/05 05:46:04;;;;;;;;;18.25;16.75;;;;;-141.35;100.00;57355.97;4972949;28;9943;-67
2021/12/05 05:48:39;;;;;;;;;12.50;12.50;;;;;-141.35;100.00;57355.97;4974034;28;9739;-67
2021/12/05 05:51:06;;;;;;;;;22.00;19.50;;;;;-141.35;100.00;57355.97;4974631;28;10506;-67
2021/12/05 05:53:33;;;;;;;;;10.25;9.00;;;;;-141.35;100.00;57355.97;4974976;28;9819;-67
2021/12/05 05:55:58;;;;;;;;;10.75;10.75;;;;;-141.35;100.00;57355.97;4963588;28;9832;-68
2021/12/05 05:58:36;;;;;;;;;9.75;9.00;;;;;-141.35;100.00;57355.97;4955573;28;9832;-67
2021/12/05 06:01:04;;;;;;;;;13.50;11.50;;;;;-141.35;100.00;57355.97;4955634;28;9520;-67
2021/12/05 06:03:31;;;;;;;;;8.00;8.00;;;;;-141.35;100.00;57355.97;4954827;28;9729;-67
2021/12/05 06:06:00;;;;;;;;;19.25;15.00;;;;;-141.35;100.00;57355.97;4954884;28;9951;-67
2021/12/05 06:08:29;;;;;;;;;16.75;13.75;;;;;-141.35;100.00;57355.97;4955282;28;9930;-67
2021/12/05 06:10:57;;;;;;;;;10.25;7.50;;;;;-141.35;100.00;57355.97;4967274;28;10140;-67
2021/12/05 06:13:23;;;;;;;;;15.00;13.75;;;;;-141.35;100.00;57355.97;4974187;28;9994;-67
2021/12/05 06:15:50;;;;;;;;;11.50;10.00;;;;;-141.35;100.00;57355.97;4974231;28;10017;-67
2021/12/05 06:18:15;;;;;;;;;16.75;15.25;;;;;-141.35;100.00;57355.97;4973933;28;9883;-68
2021/12/05 06:20:41;;;;;;;;;20.00;17.00;;;;;-141.35;100.00;57355.97;4972955;28;10021;-66
2021/12/05 06:23:08;;;;;;;;;17.00;13.25;;;;;-141.35;100.00;57355.97;4974060;28;8841;-66
2021/12/05 06:25:36;;;;;;;;;14.50;14.50;;;;;-141.35;100.00;57355.97;4973467;28;11591;-67
2021/12/05 06:28:08;;;;;;;;;13.50;13.00;;;;;-141.35;100.00;57355.97;4973974;28;9914;-67
2021/12/05 06:30:53;;;;;;;;;19.75;17.00;;;;;-141.35;100.00;57355.97;4974306;28;10001;-67
2021/12/05 06:39:00;;;;;;;;;22.00;15.75;;;;;-141.35;100.00;57355.97;4973096;28;9707;-67
2021/12/05 06:46:56;;;;;;;;;22.25;18.75;;;;;-141.35;100.00;57355.97;4972189;28;10266;-67
2021/12/05 06:49:21;;;;;;;;;18.00;16.75;;;;;-141.35;100.00;57355.97;4973812;28;10294;-67
2021/12/05 06:51:46;;;;;;;;;11.25;11.00;;;;;-141.35;100.00;57355.97;4973054;28;9994;-67
2021/12/05 06:54:12;;;;;;;;;19.50;17.00;;;;;-141.35;100.00;57355.97;4973530;28;9502;-66
2021/12/05 06:56:40;;;;;;;;;18.50;16.50;;;;;-141.35;100.00;57355.97;4959484;28;8910;-66
2021/12/05 06:59:05;;;;;;;;;17.00;17.00;;;;;-141.35;100.00;57355.97;4972863;28;8899;-65
2021/12/05 07:01:31;;;;;;;;;11.00;11.00;;;;;-141.35;100.00;57355.97;4973942;28;9989;-67
2021/12/05 07:04:02;;;;;;;;;22.25;18.25;;;;;-141.35;100.00;57355.97;4972906;28;8883;-67
2021/12/05 07:06:30;;;;;;;;;19.25;16.00;;;;;-141.35;100.00;57355.97;4972793;28;8824;-67
2021/12/05 07:09:04;;;;;;;;;19.00;19.00;;;;;-141.35;100.00;57355.97;4972253;28;9956;-67
2021/12/05 07:11:40;;;;;;;;;21.75;21.75;;;;;-141.35;100.00;57355.97;4973296;28;10064;-67
2021/12/05 07:19:42;;;;;;;;;17.00;17.00;;;;;-141.35;100.00;57355.97;4972453;28;10010;-67
2021/12/05 07:22:18;;;;;;;;;23.00;22.00;;;;;-141.35;100.00;57355.97;4971863;28;10231;-68
2021/12/05 07:40:49;;;;;;;;;20.25;14.00;;;;;-141.35;100.00;57355.97;4972094;28;9861;-67
2021/12/05 07:43:16;;;;;;;;;19.00;15.25;;;;;-141.35;100.00;57355.97;4971110;28;10052;-66
2021/12/05 07:45:50;;;;;;;;;19.50;17.50;;;;;-141.35;100.00;57355.97;4972344;28;8987;-66
2021/12/05 07:48:21;;;;;;;;;17.50;17.00;;;;;-141.35;100.00;57355.97;4971797;28;9981;-66
2021/12/05 07:51:02;;;;;;;;;18.25;16.25;;;;;-141.35;100.00;57355.97;4972075;28;10710;-67
2021/12/05 07:53:38;;;;;;;;;22.25;22.25;;;;;-141.35;100.00;57355.97;4972491;28;10666;-67
2021/12/05 07:56:12;;;;;;;;;16.00;14.00;;;;;-141.35;100.00;57355.97;4955997;28;9925;-67
2021/12/05 07:59:20;;;;;;;;;15.00;14.50;;;;;-141.35;100.00;57355.97;4953117;28;9720;-67
2021/12/05 08:15:06;;;;;;;;;16.00;16.00;;;;;-141.35;100.00;57355.97;4971188;28;10072;-67
2021/12/05 08:17:32;;;;;;;;;17.00;14.75;;;;;-141.35;100.00;57355.97;4971573;28;10000;-67
2021/12/05 08:19:57;;;;;;;;;18.00;15.25;;;;;-141.35;100.00;57355.97;4971787;28;10173;-67
2021/12/05 08:22:24;;;;;;;;;19.50;17.75;;;;;-141.35;100.00;57355.97;4972139;28;8837;-67
2021/12/05 08:24:51;;;;;;;;;18.00;16.00;;;;;-141.35;100.00;57355.97;4971231;28;8809;-67
2021/12/05 08:27:16;;;;;;;;;14.00;13.75;;;;;-141.35;100.00;57355.97;4971991;28;10030;-68
2021/12/05 08:29:47;;;;;;;;;14.75;12.25;;;;;-141.35;100.00;57355.97;4971350;28;10656;-67
2021/12/05 08:35:09;;;;;;;;;12.00;12.00;;;;;-141.35;100.00;57355.97;4971131;28;10070;-67
2021/12/05 08:40:34;;;;;;;;;16.00;11.00;;;;;-141.35;100.00;57355.97;4971652;28;9946;-66
2021/12/05 09:24:24;;;;;;;;;18.25;17.25;;;;;-141.35;100.00;57355.97;4974617;28;10855;-67
2021/12/05 09:27:31;;;;;;;;;17.25;17.25;;;;;-141.35;100.00;57355.97;4973933;28;9868;-67
2021/12/05 09:38:37;;;;;;;;;14.25;13.50;;;;;-141.35;100.00;57355.97;4975287;28;9814;-66
2021/12/05 10:03:06;;;;;;;;;14.25;10.00;;;;;-141.35;100.00;57355.97;4973582;28;9550;-66
2021/12/05 10:11:12;;;;;;;;;13.00;11.00;;;;;-141.35;100.00;57355.97;4972623;28;9739;-67
2021/12/05 10:17:27;;;;;;;;;9.50;9.50;;;;;-141.35;100.00;57355.97;4988717;28;9530;-66
2021/12/05 10:38:54;;;;;;;;;12.50;11.00;;;;;-141.35;100.00;57355.97;4971740;28;10607;-67
2021/12/05 10:44:11;;;;;;;;;12.75;12.75;;;;;-141.35;100.00;57355.97;4973002;28;9936;-67
2021/12/05 10:46:39;;;;;;;;;10.00;9.50;;;;;-141.35;100.00;57355.97;4972124;28;9704;-67
2021/12/05 10:49:12;;;;;;;;;11.25;9.50;;;;;-141.35;100.00;57355.97;4973552;28;9496;-65
2021/12/05 10:51:47;;;;;;;;;11.25;9.75;;;;;-141.35;100.00;57355.97;4985821;28;9715;-65
2021/12/05 10:54:19;;;;;;;;;11.50;9.25;;;;;-141.35;100.00;57355.97;4993425;28;9833;-66
2021/12/05 10:56:50;;;;;;;;;14.25;12.00;;;;;-141.35;100.00;57355.97;4968989;28;9874;-66
2021/12/05 10:59:23;;;;;;;;;11.75;11.75;;;;;-141.35;100.00;57355.97;4973043;28;9914;-67
2021/12/05 11:01:53;;;;;;;;;13.75;11.75;;;;;-141.35;100.00;57355.97;4973300;28;9652;-67
2021/12/05 11:04:30;;;;;;;;;8.25;8.25;;;;;-141.35;100.00;57355.97;4973591;28;9847;-66
2021/12/05 11:07:01;;;;;;;;;12.50;12.50;;;;;-141.35;100.00;57355.97;4972059;28;9715;-66
2021/12/05 11:09:29;;;;;;;;;11.75;11.75;;;;;-141.35;100.00;57355.97;4972873;28;9717;-66
2021/12/05 11:12:02;;;;;;;;;7.00;5.00;;;;;-141.35;100.00;57355.97;4972952;28;10317;-66
2021/12/05 11:14:35;;;;;;;;;15.00;13.00;;;;;-141.35;100.00;57355.97;4973165;28;9660;-67
2021/12/05 11:17:05;;;;;;;;;11.50;11.50;;;;;-141.35;100.00;57355.97;4972734;28;9648;-67
2021/12/05 11:19:39;;;;;;;;;13.25;12.00;;;;;-141.35;100.00;57355.97;4972546;28;9580;-66
2021/12/05 11:22:21;;;;;;;;;9.75;9.75;;;;;-141.35;100.00;57355.97;4973103;28;9675;-67
2021/12/05 11:24:52;;;;;;;;;10.25;10.25;;;;;-141.35;100.00;57355.97;4972708;28;10321;-66
2021/12/05 11:27:24;;;;;;;;;8.25;8.25;;;;;-141.35;100.00;57355.97;4972301;28;9741;-67
2021/12/05 11:30:02;;;;;;;;;14.00;11.75;;;;;-141.35;100.00;57355.97;4972862;28;9411;-66
2021/12/05 11:32:38;;;;;;;;;10.50;8.50;;;;;-141.35;100.00;57355.97;4972036;28;9747;-73
2021/12/05 11:35:34;;;;;;;;;8.00;8.00;;;;;-141.35;100.00;57355.97;4972131;28;9413;-73
2021/12/05 11:38:07;;;;;;;;;11.33;10.00;;;;;-141.35;100.00;57355.97;4972524;28;9423;-69
2021/12/05 11:41:11;;;;;;;;;6.67;6.67;;;;;-141.35;100.00;57355.97;4972005;28;9436;-70
2021/12/05 11:43:51;;;;;;;;;11.00;8.00;;;;;-141.35;100.00;57355.97;4972545;28;9504;-67
2021/12/05 11:46:18;;;;;;;;;8.67;8.67;;;;;-141.35;100.00;57355.97;4972883;28;9547;-69
2021/12/05 11:48:49;;;;;;;;;8.25;7.75;;;;;-141.35;100.00;57355.97;4970990;28;9292;-71
2021/12/05 11:51:27;;;;;;;;;10.25;10.25;;;;;-141.35;100.00;57355.97;4972993;28;9416;-68
2021/12/05 11:54:08;;;;;;;;;7.75;7.75;;;;;-141.35;100.00;57355.97;4972009;28;9612;-69
2021/12/05 11:56:46;;;;;;;;;8.50;8.50;;;;;-141.35;100.00;57355.97;4971644;28;9422;-68
2021/12/05 11:59:25;;;;;;;;;14.00;12.00;;;;;-141.35;100.00;57355.97;4972539;28;9507;-69
2021/12/05 12:01:56;;;;;;;;;9.50;9.00;;;;;-141.35;100.00;57355.97;4971005;28;9517;-70
2021/12/05 12:04:36;;;;;;;;;8.00;8.00;;;;;-141.35;100.00;57355.97;4970277;28;9507;-69
2021/12/05 12:07:16;;;;;;;;;8.50;8.50;;;;;-141.35;100.00;57355.97;4972296;28;9431;-69
2021/12/05 12:09:42;;;;;;;;;15.00;11.75;;;;;-141.35;100.00;57355.97;4971079;28;9439;-69
2021/12/05 12:12:09;;;;;;;;;9.00;9.00;;;;;-141.35;100.00;57355.97;4972533;28;9564;-69
2021/12/05 12:14:34;;;;;;;;;12.75;9.75;;;;;-141.35;100.00;57355.97;4971055;28;9550;-69
2021/12/05 12:17:01;;;;;;;;;15.25;13.00;;;;;-141.35;100.00;57355.97;4969151;28;9542;-70
2021/12/05 12:19:27;;;;;;;;;12.00;9.00;;;;;-141.35;100.00;57355.97;4970864;28;8808;-69
2021/12/05 12:21:57;;;;;;;;;13.00;12.00;;;;;-141.35;100.00;57355.97;4971281;28;9553;-70
2021/12/05 12:24:23;;;;;;;;;12.50;11.25;;;;;-141.35;100.00;57355.97;4971049;28;8809;-69
2021/12/05 12:26:48;;;;;;;;;12.75;12.75;;;;;-141.35;100.00;57355.97;4971797;28;9586;-69
2021/12/05 12:29:20;;;;;;;;;17.00;15.50;;;;;-141.35;100.00;57355.97;4972160;28;9503;-68
2021/12/05 12:31:49;;;;;;;;;14.25;14.25;;;;;-141.35;100.00;57355.97;4970765;28;9136;-68
2021/12/05 12:34:18;;;;;;;;;18.00;16.25;;;;;-141.35;100.00;57355.97;4971856;28;9671;-68
2021/12/05 12:36:51;;;;;;;;;10.00;10.00;;;;;-141.35;100.00;57355.97;4970671;28;9674;-69
2021/12/05 12:39:16;;;;;;;;;14.25;12.50;;;;;-141.35;100.00;57355.97;4972015;28;9642;-70
2021/12/05 12:41:59;;;;;;;;;13.75;13.50;;;;;-141.35;100.00;57355.97;4971551;28;9733;-69
2021/12/05 12:44:24;;;;;;;;;21.25;17.25;;;;;-141.35;100.00;57355.97;4970384;28;8895;-71
2021/12/05 12:46:56;;;;;;;;;15.00;15.00;;;;;-141.35;100.00;57355.97;4990669;28;10381;-71
2021/12/05 12:49:23;;;;;;;;;20.75;19.00;;;;;-141.35;100.00;57355.97;4991570;28;8806;-71
2021/12/05 12:52:02;;;;;;;;;21.25;19.50;;;;;-141.35;100.00;57355.97;4955779;28;9890;-70
2021/12/05 12:54:37;;;;;;;;;22.00;22.00;;;;;-141.35;100.00;57355.97;4952351;28;10531;-71
2021/12/05 12:57:12;;;;;;;;;26.50;25.00;;;;;-141.35;100.00;57355.97;4952097;28;9913;-69
2021/12/05 12:59:51;;;;;;;;;25.00;23.00;;;;;-141.35;100.00;57355.97;4951345;28;10013;-69
2021/12/05 13:10:30;;;;;;;;;30.50;25.75;;;;;-141.35;100.00;57355.97;4952237;28;10064;-70
2021/12/05 13:13:04;;;;;;;;;39.25;34.00;;;;;-141.35;100.00;57355.97;4951331;28;10124;-70
2021/12/05 13:15:43;;;;;;;;;45.50;33.75;;;;;-141.35;100.00;57355.97;4952004;28;10257;-68
2021/12/05 13:18:08;;;;;;;;;32.75;30.00;;;;;-141.35;100.00;57355.97;4952345;28;10236;-71
2021/12/05 13:20:42;;;;;;;;;37.25;34.50;;;;;-141.35;100.00;57355.97;4951360;28;10308;-73
2021/12/05 13:23:15;;;;;;;;;40.00;37.00;;;;;-141.35;100.00;57355.97;4952096;28;8955;-71
2021/12/05 13:26:07;;;;;;;;;30.25;26.75;;;;;-141.35;100.00;57355.97;4951055;28;10377;-70
2021/12/05 13:28:35;;;;;;;;;37.25;31.75;;;;;-141.35;100.00;57355.97;4951936;28;10284;-70
2021/12/05 13:31:26;;;;;;;;;39.25;32.75;;;;;-141.35;100.00;57355.97;4952087;28;10432;-71
2021/12/05 13:34:30;;;;;;;;;39.00;35.75;;;;;-141.35;100.00;57355.97;4954372;28;10627;-67
2021/12/05 13:37:20;;;;;;;;;43.00;37.75;;;;;-141.35;100.00;57355.97;4955144;28;10399;-65
2021/12/05 13:39:52;;;;;;;;;45.25;41.25;;;;;-141.35;100.00;57355.97;4954344;28;10418;-67
2021/12/05 13:42:27;;;;;;;;;45.25;40.00;;;;;-141.35;100.00;57355.97;4955240;28;10686;-66
2021/12/05 13:45:08;;;;;;;;;43.00;41.00;;;;;-141.35;100.00;57355.97;4955346;28;10551;-65
2021/12/05 13:47:39;;;;;;;;;43.50;39.00;;;;;-141.35;100.00;57355.97;4954871;28;10513;-67
2021/12/05 13:52:49;;;;;;;;;58.50;47.50;;;;;-141.35;100.00;57355.97;4955136;28;10724;-67
2021/12/05 13:55:34;;;;;;;;;50.75;45.00;;;;;-141.35;100.00;57355.97;4954866;28;10904;-68
2021/12/05 13:58:35;;;;;;;;;44.75;36.00;;;;;-141.35;100.00;57355.97;4955006;28;10902;-67
2021/12/05 14:01:22;;;;;;;;;50.25;43.75;;;;;-141.35;100.00;57355.97;4954272;28;11753;-67
2021/12/05 14:03:53;;;;;;;;;51.00;44.00;;;;;-141.35;100.00;57355.97;4954731;28;10817;-66
2021/12/05 14:06:53;;;;;;;;;51.75;45.75;;;;;-141.35;100.00;57355.97;4955128;28;10773;-67
2021/12/05 14:09:32;;;;;;;;;46.75;39.75;;;;;-141.35;100.00;57355.97;4954423;28;10744;-67
2021/12/05 14:12:09;;;;;;;;;44.75;42.00;;;;;-141.35;100.00;57355.97;4954870;28;10552;-67
2021/12/05 14:14:35;;;;;;;;;48.50;41.25;;;;;-141.35;100.00;57355.97;4954785;28;10610;-67
2021/12/05 14:17:05;;;;;;;;;38.25;36.00;;;;;-141.35;100.00;57355.97;4954180;28;10462;-67
2021/12/05 14:19:33;;;;;;;;;47.50;40.00;;;;;-141.35;100.00;57355.97;4955142;28;8780;-67
2021/12/05 14:22:01;;;;;;;;;27.50;25.25;;;;;-141.35;100.00;57355.97;4953786;28;10654;-67
2021/12/05 14:24:32;;;;;;;;;37.00;35.25;;;;;-141.35;100.00;57355.97;4955128;28;10315;-67
2021/12/05 14:27:00;;;;;;;;;48.00;41.25;;;;;-141.35;100.00;57355.97;4954333;28;10538;-67
2021/12/05 14:29:28;;;;;;;;;46.00;41.75;;;;;-141.35;100.00;57355.97;4953960;28;10700;-67
2021/12/05 14:31:58;;;;;;;;;42.50;35.25;;;;;-141.35;100.00;57355.97;4954624;28;10569;-67
2021/12/05 14:34:25;;;;;;;;;39.75;38.00;;;;;-141.35;100.00;57355.97;4954455;28;10622;-67
2021/12/05 14:37:19;;;;;;;;;44.25;41.25;;;;;-141.35;100.00;57355.97;4953656;28;10728;-68
2021/12/05 14:39:55;;;;;;;;;38.75;34.75;;;;;-141.35;100.00;57355.97;4952788;28;10578;-68
2021/12/05 14:42:23;;;;;;;;;39.50;38.50;;;;;-141.35;100.00;57355.97;4954442;28;10620;-67
2021/12/05 14:44:53;;;;;;;;;34.50;34.50;;;;;-141.35;100.00;57355.97;4953170;28;10566;-67
2021/12/05 14:47:22;;;;;;;;;47.25;42.75;;;;;-141.35;100.00;57355.97;4954052;28;10557;-67
2021/12/05 14:49:57;;;;;;;;;39.00;35.25;;;;;-141.35;100.00;57355.97;4954257;28;10632;-67
2021/12/05 14:52:29;;;;;;;;;44.75;40.50;;;;;-141.35;100.00;57355.97;4953522;28;10572;-67
2021/12/05 14:54:55;;;;;;;;;38.00;36.25;;;;;-141.35;100.00;57355.97;4953748;28;11451;-68
2021/12/05 14:57:27;;;;;;;;;46.50;39.75;;;;;-141.35;100.00;57355.97;4953606;28;10573;-66
2021/12/05 15:00:04;;;;;;;;;35.50;33.75;;;;;-141.35;100.00;57355.97;4953955;28;10669;-67
2021/12/05 15:02:30;;;;;;;;;40.50;37.25;;;;;-141.35;100.00;57355.97;4953960;28;10502;-67
2021/12/05 15:04:55;;;;;;;;;43.50;38.75;;;;;-141.35;100.00;57355.97;4952637;28;10535;-67
2021/12/05 15:07:23;;;;;;;;;36.00;29.75;;;;;-141.35;100.00;57355.97;4953978;28;8824;-67
2021/12/05 15:09:53;;;;;;;;;33.00;28.00;;;;;-141.35;100.00;57355.97;4953810;28;8798;-66
2021/12/05 15:12:24;;;;;;;;;37.50;36.00;;;;;-141.35;100.00;57355.97;4953152;28;10408;-67
2021/12/05 15:14:53;;;;;;;;;36.25;35.00;;;;;-141.35;100.00;57355.97;4953440;28;10501;-66
2021/12/05 15:17:25;;;;;;;;;41.50;37.75;;;;;-141.35;100.00;57355.97;4953889;28;10562;-66
2021/12/05 15:19:53;;;;;;;;;36.00;31.00;;;;;-141.35;100.00;57355.97;4952579;28;10986;-67
2021/12/05 15:22:19;;;;;;;;;37.50;33.25;;;;;-141.35;100.00;57355.97;4953554;28;10377;-67
2021/12/05 15:24:57;;;;;;;;;31.50;31.25;;;;;-141.35;100.00;57355.97;4953494;28;10562;-67
2021/12/05 15:27:27;;;;;;;;;38.75;38.75;;;;;-141.35;100.00;57355.97;4952664;28;10434;-66
2021/12/05 15:30:01;;;;;;;;;36.00;30.50;;;;;-141.35;100.00;57355.97;4953484;28;10352;-66
2021/12/05 15:32:30;;;;;;;;;37.25;34.25;;;;;-141.35;100.00;57355.97;4952833;28;10484;-67
2021/12/05 15:34:59;;;;;;;;;42.75;37.25;;;;;-141.35;100.00;57355.97;4952793;28;10438;-67
2021/12/05 15:37:24;;;;;;;;;46.50;41.00;;;;;-141.35;100.00;57355.97;4953590;28;10736;-67
2021/12/05 15:39:52;;;;;;;;;34.75;33.75;;;;;-141.35;100.00;57355.97;4951976;28;10771;-67
2021/12/05 15:42:27;;;;;;;;;41.50;38.50;;;;;-141.35;100.00;57355.97;4953630;28;8828;-67
2021/12/05 15:44:55;;;;;;;;;48.00;42.75;;;;;-141.35;100.00;57355.97;4953089;28;10661;-67
2021/12/05 15:47:32;;;;;;;;;41.25;35.50;;;;;-141.35;100.00;57355.97;4952638;28;10708;-68
2021/12/05 15:49:59;;;;;;;;;43.50;40.25;;;;;-141.35;100.00;57355.97;4954423;28;10473;-67
2021/12/05 15:52:36;;;;;;;;;37.50;34.75;;;;;-141.35;100.00;57355.97;4971930;28;10559;-68
2021/12/05 15:55:08;;;;;;;;;42.50;40.00;;;;;-141.35;100.00;57355.97;4969681;28;10407;-68
2021/12/05 15:57:36;;;;;;;;;34.00;31.00;;;;;-141.35;100.00;57355.97;4971201;28;10486;-67
2021/12/05 16:00:14;;;;;;;;;37.50;36.00;;;;;-141.35;100.00;57355.97;4972121;28;10517;-68
2021/12/05 16:02:41;;;;;;;;;35.00;32.00;;;;;-141.35;100.00;57355.97;4971194;28;10447;-68